sensor_id;sensor_type;location;lat;lon;timestamp;temperature;humidity
33841;DHT22;20142;28.494;-16.312;2023-04-01T00:02:08;26.00;37.80
33841;DHT22;20142;28.494;-16.312;2023-04-01T00:07:11;26.00;37.50
33841;DHT22;20142;28.494;-16.312;2023-04-01T00:12:13;25.90;37.10
33841;DHT22;20142;28.494;-16.312;2023-04-01T00:17:15;25.90;37.30
33841;DHT22;20142;28.494;-16.312;2023-04-01T00:22:17;25.80;37.20
33841;DHT22;20142;28.494;-16.312;2023-04-01T00:27:19;25.70;37.30
33841;DHT22;20142;28.494;-16.312;2023-04-01T00:32:21;25.70;36.90
33841;DHT22;20142;28.494;-16.312;2023-04-01T00:37:23;25.70;36.80
33841;DHT22;20142;28.494;-16.312;2023-04-01T00:42:25;25.60;37.00
33841;DHT22;20142;28.494;-16.312;2023-04-01T00:47:27;25.60;36.80
33841;DHT22;20142;28.494;-16.312;2023-04-01T00:52:29;25.50;36.60
33841;DHT22;20142;28.494;-16.312;2023-04-01T00:57:35;25.50;36.80
33841;DHT22;20142;28.494;-16.312;2023-04-01T01:02:38;25.50;36.50
33841;DHT22;20142;28.494;-16.312;2023-04-01T01:08:17;25.40;36.50
33841;DHT22;20142;28.494;-16.312;2023-04-01T01:13:36;25.40;36.00
33841;DHT22;20142;28.494;-16.312;2023-04-01T01:19:15;25.30;36.00
33841;DHT22;20142;28.494;-16.312;2023-04-01T01:35:33;25.20;36.10
33841;DHT22;20142;28.494;-16.312;2023-04-01T01:40:42;25.20;36.20
33841;DHT22;20142;28.494;-16.312;2023-04-01T01:45:52;25.10;36.60
33841;DHT22;20142;28.494;-16.312;2023-04-01T01:50:56;25.20;36.20
33841;DHT22;20142;28.494;-16.312;2023-04-01T01:55:58;25.10;36.30
33841;DHT22;20142;28.494;-16.312;2023-04-01T02:01:02;25.10;36.20
33841;DHT22;20142;28.494;-16.312;2023-04-01T02:06:08;25.00;36.20
33841;DHT22;20142;28.494;-16.312;2023-04-01T02:11:14;25.00;35.60
33841;DHT22;20142;28.494;-16.312;2023-04-01T02:22:16;24.80;36.00
33841;DHT22;20142;28.494;-16.312;2023-04-01T02:27:20;24.80;35.60
33841;DHT22;20142;28.494;-16.312;2023-04-01T02:32:22;24.70;35.80
33841;DHT22;20142;28.494;-16.312;2023-04-01T02:37:24;24.60;35.50
33841;DHT22;20142;28.494;-16.312;2023-04-01T02:42:25;24.60;35.70
33841;DHT22;20142;28.494;-16.312;2023-04-01T02:47:27;24.60;35.60
33841;DHT22;20142;28.494;-16.312;2023-04-01T02:52:29;24.60;35.70
33841;DHT22;20142;28.494;-16.312;2023-04-01T02:57:31;24.60;35.40
33841;DHT22;20142;28.494;-16.312;2023-04-01T03:02:33;24.50;35.20
33841;DHT22;20142;28.494;-16.312;2023-04-01T03:07:34;24.50;35.60
33841;DHT22;20142;28.494;-16.312;2023-04-01T03:12:36;24.40;35.40
33841;DHT22;20142;28.494;-16.312;2023-04-01T03:17:38;24.40;35.40
33841;DHT22;20142;28.494;-16.312;2023-04-01T03:22:40;24.40;35.50
33841;DHT22;20142;28.494;-16.312;2023-04-01T03:27:42;24.30;35.20
33841;DHT22;20142;28.494;-16.312;2023-04-01T03:32:43;24.30;35.30
33841;DHT22;20142;28.494;-16.312;2023-04-01T03:37:45;24.20;35.40
33841;DHT22;20142;28.494;-16.312;2023-04-01T03:42:47;24.10;35.40
33841;DHT22;20142;28.494;-16.312;2023-04-01T03:47:49;24.20;35.40
33841;DHT22;20142;28.494;-16.312;2023-04-01T03:52:50;24.10;35.50
33841;DHT22;20142;28.494;-16.312;2023-04-01T03:57:52;24.10;35.50
33841;DHT22;20142;28.494;-16.312;2023-04-01T04:02:53;24.00;35.40
33841;DHT22;20142;28.494;-16.312;2023-04-01T04:07:57;24.00;35.50
33841;DHT22;20142;28.494;-16.312;2023-04-01T04:12:59;24.00;35.50
33841;DHT22;20142;28.494;-16.312;2023-04-01T04:18:01;24.00;35.30
33841;DHT22;20142;28.494;-16.312;2023-04-01T04:23:02;24.00;35.60
33841;DHT22;20142;28.494;-16.312;2023-04-01T04:28:04;24.00;35.70
33841;DHT22;20142;28.494;-16.312;2023-04-01T04:33:06;23.90;35.40
33841;DHT22;20142;28.494;-16.312;2023-04-01T04:38:07;23.90;35.60
33841;DHT22;20142;28.494;-16.312;2023-04-01T04:43:13;23.80;35.20
33841;DHT22;20142;28.494;-16.312;2023-04-01T04:48:17;23.80;35.40
33841;DHT22;20142;28.494;-16.312;2023-04-01T04:53:21;23.70;35.50
33841;DHT22;20142;28.494;-16.312;2023-04-01T04:58:23;23.70;35.80
33841;DHT22;20142;28.494;-16.312;2023-04-01T05:03:24;23.60;35.60
33841;DHT22;20142;28.494;-16.312;2023-04-01T05:08:26;23.50;36.20
33841;DHT22;20142;28.494;-16.312;2023-04-01T05:13:28;23.50;36.30
33841;DHT22;20142;28.494;-16.312;2023-04-01T05:18:30;23.50;36.20
33841;DHT22;20142;28.494;-16.312;2023-04-01T05:23:32;23.50;36.30
33841;DHT22;20142;28.494;-16.312;2023-04-01T05:28:34;23.40;36.30
33841;DHT22;20142;28.494;-16.312;2023-04-01T05:33:36;23.40;36.40
33841;DHT22;20142;28.494;-16.312;2023-04-01T05:38:38;23.40;36.40
33841;DHT22;20142;28.494;-16.312;2023-04-01T05:43:41;23.40;36.70
33841;DHT22;20142;28.494;-16.312;2023-04-01T05:48:43;23.30;36.80
33841;DHT22;20142;28.494;-16.312;2023-04-01T05:53:44;23.30;36.60
33841;DHT22;20142;28.494;-16.312;2023-04-01T05:58:49;23.20;36.60
33841;DHT22;20142;28.494;-16.312;2023-04-01T06:03:52;23.30;37.00
33841;DHT22;20142;28.494;-16.312;2023-04-01T06:08:57;23.20;37.00
33841;DHT22;20142;28.494;-16.312;2023-04-01T06:14:23;23.10;37.10
33841;DHT22;20142;28.494;-16.312;2023-04-01T06:19:50;23.00;37.50
33841;DHT22;20142;28.494;-16.312;2023-04-01T06:58:00;22.80;37.90
33841;DHT22;20142;28.494;-16.312;2023-04-01T07:08:41;22.80;38.10
33841;DHT22;20142;28.494;-16.312;2023-04-01T07:24:37;22.80;38.50
33841;DHT22;20142;28.494;-16.312;2023-04-01T07:29:41;22.80;38.80
33841;DHT22;20142;28.494;-16.312;2023-04-01T07:34:51;22.70;39.00
33841;DHT22;20142;28.494;-16.312;2023-04-01T07:40:27;22.80;39.00
33841;DHT22;20142;28.494;-16.312;2023-04-01T07:56:57;23.00;39.20
33841;DHT22;20142;28.494;-16.312;2023-04-01T08:13:17;23.20;39.60
33841;DHT22;20142;28.494;-16.312;2023-04-01T08:18:37;23.20;39.40
33841;DHT22;20142;28.494;-16.312;2023-04-01T08:30:15;23.50;40.00
33841;DHT22;20142;28.494;-16.312;2023-04-01T08:35:31;23.70;38.90
33841;DHT22;20142;28.494;-16.312;2023-04-01T08:40:53;23.90;38.50
33841;DHT22;20142;28.494;-16.312;2023-04-01T08:46:19;24.00;38.90
33841;DHT22;20142;28.494;-16.312;2023-04-01T08:58:01;24.50;38.60
33841;DHT22;20142;28.494;-16.312;2023-04-01T09:09:39;24.90;38.00
33841;DHT22;20142;28.494;-16.312;2023-04-01T09:37:26;25.30;39.40
33841;DHT22;20142;28.494;-16.312;2023-04-01T09:54:09;25.70;39.90
33841;DHT22;20142;28.494;-16.312;2023-04-01T10:05:42;26.10;40.70
33841;DHT22;20142;28.494;-16.312;2023-04-01T10:11:28;26.30;41.70
33841;DHT22;20142;28.494;-16.312;2023-04-01T10:55:53;26.80;43.90
33841;DHT22;20142;28.494;-16.312;2023-04-01T11:29:03;27.40;41.60
33841;DHT22;20142;28.494;-16.312;2023-04-01T11:56:32;27.50;41.30
33841;DHT22;20142;28.494;-16.312;2023-04-01T12:02:09;27.60;40.30
33841;DHT22;20142;28.494;-16.312;2023-04-01T12:29:44;27.90;38.30
33841;DHT22;20142;28.494;-16.312;2023-04-01T13:31:34;28.20;36.80
33841;DHT22;20142;28.494;-16.312;2023-04-01T13:42:49;28.40;36.20
33841;DHT22;20142;28.494;-16.312;2023-04-01T13:53:36;28.80;36.10
33841;DHT22;20142;28.494;-16.312;2023-04-01T14:15:14;29.00;35.80
33841;DHT22;20142;28.494;-16.312;2023-04-01T14:20:40;29.40;35.00
33841;DHT22;20142;28.494;-16.312;2023-04-01T14:31:47;30.30;35.00
33841;DHT22;20142;28.494;-16.312;2023-04-01T14:47:50;36.90;31.00
33841;DHT22;20142;28.494;-16.312;2023-04-01T14:53:18;39.50;29.60
33841;DHT22;20142;28.494;-16.312;2023-04-01T14:58:49;41.20;27.30
33841;DHT22;20142;28.494;-16.312;2023-04-01T15:31:29;46.70;23.20
33841;DHT22;20142;28.494;-16.312;2023-04-01T15:52:49;45.30;19.20
33841;DHT22;20142;28.494;-16.312;2023-04-01T16:31:41;46.90;17.30
33841;DHT22;20142;28.494;-16.312;2023-04-01T16:37:07;47.30;16.70
33841;DHT22;20142;28.494;-16.312;2023-04-01T16:47:54;48.00;16.60
33841;DHT22;20142;28.494;-16.312;2023-04-01T16:58:23;48.30;15.50
33841;DHT22;20142;28.494;-16.312;2023-04-01T17:03:46;47.70;15.30
33841;DHT22;20142;28.494;-16.312;2023-04-01T17:20:09;46.60;14.70
33841;DHT22;20142;28.494;-16.312;2023-04-01T17:25:46;46.40;14.50
33841;DHT22;20142;28.494;-16.312;2023-04-01T17:31:36;45.50;14.40
33841;DHT22;20142;28.494;-16.312;2023-04-01T17:49:03;44.20;14.30
33841;DHT22;20142;28.494;-16.312;2023-04-01T17:53:57;44.30;14.20
33841;DHT22;20142;28.494;-16.312;2023-04-01T18:10:29;43.00;13.80
33841;DHT22;20142;28.494;-16.312;2023-04-01T18:16:21;42.30;13.70
33841;DHT22;20142;28.494;-16.312;2023-04-01T18:21:47;41.50;13.70
33841;DHT22;20142;28.494;-16.312;2023-04-01T18:27:02;40.80;13.80
33841;DHT22;20142;28.494;-16.312;2023-04-01T18:48:42;32.50;14.30
33841;DHT22;20142;28.494;-16.312;2023-04-01T18:54:11;31.30;14.50
33841;DHT22;20142;28.494;-16.312;2023-04-01T18:59:55;30.70;15.10
33841;DHT22;20142;28.494;-16.312;2023-04-01T19:10:26;29.50;14.90
33841;DHT22;20142;28.494;-16.312;2023-04-01T19:15:46;29.40;15.10
33841;DHT22;20142;28.494;-16.312;2023-04-01T19:20:57;29.00;15.20
33841;DHT22;20142;28.494;-16.312;2023-04-01T19:26:11;28.20;15.60
33841;DHT22;20142;28.494;-16.312;2023-04-01T19:47:24;27.00;15.50
33841;DHT22;20142;28.494;-16.312;2023-04-01T19:52:53;26.60;15.90
33841;DHT22;20142;28.494;-16.312;2023-04-01T20:03:41;26.30;16.20
33841;DHT22;20142;28.494;-16.312;2023-04-01T20:19:11;25.80;16.40
33841;DHT22;20142;28.494;-16.312;2023-04-01T20:24:43;25.70;17.10
33841;DHT22;20142;28.494;-16.312;2023-04-01T20:40:38;25.90;17.40
33841;DHT22;20142;28.494;-16.312;2023-04-01T20:45:51;25.70;17.60
33841;DHT22;20142;28.494;-16.312;2023-04-01T20:51:06;25.70;18.10
33841;DHT22;20142;28.494;-16.312;2023-04-01T21:07:37;25.40;19.10
33841;DHT22;20142;28.494;-16.312;2023-04-01T21:13:41;25.50;19.40
33841;DHT22;20142;28.494;-16.312;2023-04-01T21:34:41;24.90;21.00
33841;DHT22;20142;28.494;-16.312;2023-04-01T21:40:20;24.80;21.30
33841;DHT22;20142;28.494;-16.312;2023-04-01T22:31:28;23.90;25.30
33841;DHT22;20142;28.494;-16.312;2023-04-01T22:42:02;23.90;25.70
33841;DHT22;20142;28.494;-16.312;2023-04-01T22:47:24;23.90;25.90
33841;DHT22;20142;28.494;-16.312;2023-04-01T23:03:33;23.30;27.00
33841;DHT22;20142;28.494;-16.312;2023-04-01T23:13:54;23.20;27.30
33841;DHT22;20142;28.494;-16.312;2023-04-01T23:20:26;23.10;28.10
33841;DHT22;20142;28.494;-16.312;2023-04-01T23:36:41;23.30;28.70
33841;DHT22;20142;28.494;-16.312;2023-04-01T23:41:47;23.20;28.90
33841;DHT22;20142;28.494;-16.312;2023-04-01T23:46:51;23.00;29.10
33841;DHT22;20142;28.494;-16.312;2023-04-01T23:51:59;23.00;29.50
33841;DHT22;20142;28.494;-16.312;2023-04-01T23:57:11;22.90;30.00
